sensor_id;sensor_type;location;lat;lon;timestamp;temperature;humidity
61641;HTU21D;62201;49.966;8.342;2024-01-30T00:01:11;1.94;118.99
61641;HTU21D;62201;49.966;8.342;2024-01-30T00:03:37;1.86;118.99
61641;HTU21D;62201;49.966;8.342;2024-01-30T00:06:03;1.85;118.99
61641;HTU21D;62201;49.966;8.342;2024-01-30T00:08:28;1.65;118.99
61641;HTU21D;62201;49.966;8.342;2024-01-30T00:10:54;1.73;118.99
61641;HTU21D;62201;49.966;8.342;2024-01-30T00:13:19;1.70;118.99
61641;HTU21D;62201;49.966;8.342;2024-01-30T00:15:45;1.62;118.99
61641;HTU21D;62201;49.966;8.342;2024-01-30T00:18:10;1.66;118.99
61641;HTU21D;62201;49.966;8.342;2024-01-30T00:20:36;1.77;118.99
61641;HTU21D;62201;49.966;8.342;2024-01-30T00:23:01;1.77;118.99
61641;HTU21D;62201;49.966;8.342;2024-01-30T00:25:27;1.71;118.99
61641;HTU21D;62201;49.966;8.342;2024-01-30T00:27:52;1.73;118.99
61641;HTU21D;62201;49.966;8.342;2024-01-30T00:30:17;1.65;118.99
61641;HTU21D;62201;49.966;8.342;2024-01-30T00:32:43;1.56;118.99
61641;HTU21D;62201;49.966;8.342;2024-01-30T00:35:08;1.54;118.99
61641;HTU21D;62201;49.966;8.342;2024-01-30T00:37:35;1.47;118.99
61641;HTU21D;62201;49.966;8.342;2024-01-30T00:40:01;1.43;118.99
61641;HTU21D;62201;49.966;8.342;2024-01-30T00:42:26;1.31;118.99
61641;HTU21D;62201;49.966;8.342;2024-01-30T00:44:51;1.36;118.99
61641;HTU21D;62201;49.966;8.342;2024-01-30T00:47:17;1.28;118.99
61641;HTU21D;62201;49.966;8.342;2024-01-30T00:49:42;1.20;118.99
61641;HTU21D;62201;49.966;8.342;2024-01-30T00:52:08;1.14;118.99
61641;HTU21D;62201;49.966;8.342;2024-01-30T00:54:33;1.18;118.99
61641;HTU21D;62201;49.966;8.342;2024-01-30T00:56:59;1.13;118.99
61641;HTU21D;62201;49.966;8.342;2024-01-30T00:59:24;1.13;118.99
61641;HTU21D;62201;49.966;8.342;2024-01-30T01:01:50;0.99;118.99
61641;HTU21D;62201;49.966;8.342;2024-01-30T01:04:16;0.94;118.99
61641;HTU21D;62201;49.966;8.342;2024-01-30T01:06:41;1.25;118.99
61641;HTU21D;62201;49.966;8.342;2024-01-30T01:09:10;1.04;118.99
61641;HTU21D;62201;49.966;8.342;2024-01-30T01:11:36;1.06;118.99
61641;HTU21D;62201;49.966;8.342;2024-01-30T01:14:03;1.05;118.99
61641;HTU21D;62201;49.966;8.342;2024-01-30T01:16:28;1.03;118.99
61641;HTU21D;62201;49.966;8.342;2024-01-30T01:18:53;1.07;118.99
61641;HTU21D;62201;49.966;8.342;2024-01-30T01:21:19;1.07;118.99
61641;HTU21D;62201;49.966;8.342;2024-01-30T01:23:44;1.01;118.99
61641;HTU21D;62201;49.966;8.342;2024-01-30T01:26:09;1.02;118.99
61641;HTU21D;62201;49.966;8.342;2024-01-30T01:28:35;0.97;118.99
61641;HTU21D;62201;49.966;8.342;2024-01-30T01:31:00;1.01;118.99
61641;HTU21D;62201;49.966;8.342;2024-01-30T01:33:31;0.83;118.99
61641;HTU21D;62201;49.966;8.342;2024-01-30T01:35:58;0.73;118.99
61641;HTU21D;62201;49.966;8.342;2024-01-30T01:38:23;0.72;118.99
61641;HTU21D;62201;49.966;8.342;2024-01-30T01:40:48;0.78;118.99
61641;HTU21D;62201;49.966;8.342;2024-01-30T01:43:14;0.81;118.99
61641;HTU21D;62201;49.966;8.342;2024-01-30T01:45:39;0.76;118.99
61641;HTU21D;62201;49.966;8.342;2024-01-30T01:48:05;0.60;118.99
61641;HTU21D;62201;49.966;8.342;2024-01-30T01:50:30;0.68;118.99
61641;HTU21D;62201;49.966;8.342;2024-01-30T01:52:56;0.72;118.99
61641;HTU21D;62201;49.966;8.342;2024-01-30T01:55:22;0.93;118.99
61641;HTU21D;62201;49.966;8.342;2024-01-30T01:57:49;0.81;118.99
61641;HTU21D;62201;49.966;8.342;2024-01-30T02:00:15;0.82;118.99
61641;HTU21D;62201;49.966;8.342;2024-01-30T02:02:41;0.86;118.99
61641;HTU21D;62201;49.966;8.342;2024-01-30T02:05:08;0.82;118.99
61641;HTU21D;62201;49.966;8.342;2024-01-30T02:07:33;0.66;118.99
61641;HTU21D;62201;49.966;8.342;2024-01-30T02:09:59;0.73;118.99
61641;HTU21D;62201;49.966;8.342;2024-01-30T02:12:24;0.80;118.99
61641;HTU21D;62201;49.966;8.342;2024-01-30T02:14:50;0.71;118.99
61641;HTU21D;62201;49.966;8.342;2024-01-30T02:17:16;0.77;118.99
61641;HTU21D;62201;49.966;8.342;2024-01-30T02:19:41;0.75;118.99
61641;HTU21D;62201;49.966;8.342;2024-01-30T02:22:07;0.75;118.99
61641;HTU21D;62201;49.966;8.342;2024-01-30T02:24:33;0.81;118.99
61641;HTU21D;62201;49.966;8.342;2024-01-30T02:26:59;0.78;118.99
61641;HTU21D;62201;49.966;8.342;2024-01-30T02:29:24;0.80;118.99
61641;HTU21D;62201;49.966;8.342;2024-01-30T02:31:50;0.76;118.99
61641;HTU21D;62201;49.966;8.342;2024-01-30T02:34:15;0.55;118.99
61641;HTU21D;62201;49.966;8.342;2024-01-30T02:36:44;0.50;118.99
61641;HTU21D;62201;49.966;8.342;2024-01-30T02:39:09;0.45;118.99
61641;HTU21D;62201;49.966;8.342;2024-01-30T02:41:35;0.57;118.99
61641;HTU21D;62201;49.966;8.342;2024-01-30T02:44:01;0.49;118.99
61641;HTU21D;62201;49.966;8.342;2024-01-30T02:46:26;0.55;118.99
61641;HTU21D;62201;49.966;8.342;2024-01-30T02:48:52;0.53;118.99
61641;HTU21D;62201;49.966;8.342;2024-01-30T02:51:17;0.47;118.99
61641;HTU21D;62201;49.966;8.342;2024-01-30T02:53:42;0.49;118.99
61641;HTU21D;62201;49.966;8.342;2024-01-30T02:56:08;0.36;118.99
61641;HTU21D;62201;49.966;8.342;2024-01-30T02:58:36;0.34;118.99
61641;HTU21D;62201;49.966;8.342;2024-01-30T03:01:02;0.31;118.99
61641;HTU21D;62201;49.966;8.342;2024-01-30T03:03:27;0.37;118.99
61641;HTU21D;62201;49.966;8.342;2024-01-30T03:05:53;0.38;118.99
61641;HTU21D;62201;49.966;8.342;2024-01-30T03:08:18;0.36;118.99
61641;HTU21D;62201;49.966;8.342;2024-01-30T03:10:43;0.23;118.99
61641;HTU21D;62201;49.966;8.342;2024-01-30T03:13:09;0.23;118.99
61641;HTU21D;62201;49.966;8.342;2024-01-30T03:15:34;0.32;118.99
61641;HTU21D;62201;49.966;8.342;2024-01-30T03:17:59;0.38;118.99
61641;HTU21D;62201;49.966;8.342;2024-01-30T03:20:25;0.28;118.99
61641;HTU21D;62201;49.966;8.342;2024-01-30T03:22:50;0.21;118.99
61641;HTU21D;62201;49.966;8.342;2024-01-30T03:25:15;0.28;118.99
61641;HTU21D;62201;49.966;8.342;2024-01-30T03:27:41;0.28;118.99
61641;HTU21D;62201;49.966;8.342;2024-01-30T03:30:07;0.25;118.99
61641;HTU21D;62201;49.966;8.342;2024-01-30T03:32:32;0.34;118.99
61641;HTU21D;62201;49.966;8.342;2024-01-30T03:34:58;0.43;118.99
61641;HTU21D;62201;49.966;8.342;2024-01-30T03:37:23;0.46;118.99
61641;HTU21D;62201;49.966;8.342;2024-01-30T03:39:49;0.39;118.99
61641;HTU21D;62201;49.966;8.342;2024-01-30T03:42:14;0.29;118.99
61641;HTU21D;62201;49.966;8.342;2024-01-30T03:44:39;0.28;118.99
61641;HTU21D;62201;49.966;8.342;2024-01-30T03:47:05;0.24;118.99
61641;HTU21D;62201;49.966;8.342;2024-01-30T03:49:30;0.27;118.99
61641;HTU21D;62201;49.966;8.342;2024-01-30T03:51:56;0.31;118.99
61641;HTU21D;62201;49.966;8.342;2024-01-30T03:54:21;0.40;118.99
61641;HTU21D;62201;49.966;8.342;2024-01-30T03:56:46;0.36;118.99
61641;HTU21D;62201;49.966;8.342;2024-01-30T03:59:12;0.43;118.99
61641;HTU21D;62201;49.966;8.342;2024-01-30T04:01:37;0.36;118.99
61641;HTU21D;62201;49.966;8.342;2024-01-30T04:04:03;0.31;118.99
61641;HTU21D;62201;49.966;8.342;2024-01-30T04:06:28;0.27;118.99
61641;HTU21D;62201;49.966;8.342;2024-01-30T04:08:53;0.30;118.99
61641;HTU21D;62201;49.966;8.342;2024-01-30T04:11:19;0.44;118.99
61641;HTU21D;62201;49.966;8.342;2024-01-30T04:13:45;0.44;118.99
61641;HTU21D;62201;49.966;8.342;2024-01-30T04:16:22;0.36;118.99
61641;HTU21D;62201;49.966;8.342;2024-01-30T04:18:47;0.39;118.99
61641;HTU21D;62201;49.966;8.342;2024-01-30T04:21:13;0.28;118.99
61641;HTU21D;62201;49.966;8.342;2024-01-30T04:23:42;0.32;118.99
61641;HTU21D;62201;49.966;8.342;2024-01-30T04:26:07;0.30;118.99
61641;HTU21D;62201;49.966;8.342;2024-01-30T04:28:32;0.32;118.99
61641;HTU21D;62201;49.966;8.342;2024-01-30T04:30:58;0.23;118.99
61641;HTU21D;62201;49.966;8.342;2024-01-30T04:33:23;0.20;118.99
61641;HTU21D;62201;49.966;8.342;2024-01-30T04:35:48;0.32;118.99
61641;HTU21D;62201;49.966;8.342;2024-01-30T04:38:14;0.27;118.99
61641;HTU21D;62201;49.966;8.342;2024-01-30T04:40:40;0.32;118.99
61641;HTU21D;62201;49.966;8.342;2024-01-30T04:43:05;0.29;118.99
61641;HTU21D;62201;49.966;8.342;2024-01-30T04:45:31;0.31;118.99
61641;HTU21D;62201;49.966;8.342;2024-01-30T04:47:56;0.22;118.99
61641;HTU21D;62201;49.966;8.342;2024-01-30T04:50:21;0.22;118.99
61641;HTU21D;62201;49.966;8.342;2024-01-30T04:52:47;0.21;118.99
61641;HTU21D;62201;49.966;8.342;2024-01-30T04:55:12;0.30;118.99
61641;HTU21D;62201;49.966;8.342;2024-01-30T04:57:37;0.33;118.99
61641;HTU21D;62201;49.966;8.342;2024-01-30T05:00:03;0.29;118.99
61641;HTU21D;62201;49.966;8.342;2024-01-30T05:02:28;0.38;118.99
61641;HTU21D;62201;49.966;8.342;2024-01-30T05:04:54;0.47;118.99
61641;HTU21D;62201;49.966;8.342;2024-01-30T05:07:19;0.48;118.99
61641;HTU21D;62201;49.966;8.342;2024-01-30T05:09:45;0.40;118.99
61641;HTU21D;62201;49.966;8.342;2024-01-30T05:12:10;0.49;118.99
61641;HTU21D;62201;49.966;8.342;2024-01-30T05:14:36;0.43;118.99
61641;HTU21D;62201;49.966;8.342;2024-01-30T05:17:01;0.44;118.99
61641;HTU21D;62201;49.966;8.342;2024-01-30T05:19:28;0.38;118.99
61641;HTU21D;62201;49.966;8.342;2024-01-30T05:21:53;0.42;118.99
61641;HTU21D;62201;49.966;8.342;2024-01-30T05:24:19;0.33;118.99
61641;HTU21D;62201;49.966;8.342;2024-01-30T05:26:44;0.32;118.99
61641;HTU21D;62201;49.966;8.342;2024-01-30T05:29:09;0.27;118.99
61641;HTU21D;62201;49.966;8.342;2024-01-30T05:31:35;0.24;118.99
61641;HTU21D;62201;49.966;8.342;2024-01-30T05:34:01;0.21;118.99
61641;HTU21D;62201;49.966;8.342;2024-01-30T05:36:26;0.20;118.99
61641;HTU21D;62201;49.966;8.342;2024-01-30T05:38:51;0.30;118.99
61641;HTU21D;62201;49.966;8.342;2024-01-30T05:41:17;0.24;118.99
61641;HTU21D;62201;49.966;8.342;2024-01-30T05:43:42;0.22;118.99
61641;HTU21D;62201;49.966;8.342;2024-01-30T05:46:08;0.17;118.99
61641;HTU21D;62201;49.966;8.342;2024-01-30T05:48:33;0.17;118.99
61641;HTU21D;62201;49.966;8.342;2024-01-30T05:51:00;0.19;118.99
61641;HTU21D;62201;49.966;8.342;2024-01-30T05:53:26;0.08;118.99
61641;HTU21D;62201;49.966;8.342;2024-01-30T05:55:51;0.31;118.99
61641;HTU21D;62201;49.966;8.342;2024-01-30T05:58:17;0.32;118.99
61641;HTU21D;62201;49.966;8.342;2024-01-30T06:00:42;0.21;118.99
61641;HTU21D;62201;49.966;8.342;2024-01-30T06:03:07;0.30;118.99
61641;HTU21D;62201;49.966;8.342;2024-01-30T06:05:33;0.15;118.99
61641;HTU21D;62201;49.966;8.342;2024-01-30T06:07:58;-0.08;118.99
61641;HTU21D;62201;49.966;8.342;2024-01-30T06:10:23;-0.06;118.99
61641;HTU21D;62201;49.966;8.342;2024-01-30T06:12:49;-0.08;118.99
61641;HTU21D;62201;49.966;8.342;2024-01-30T06:15:14;-0.10;118.99
61641;HTU21D;62201;49.966;8.342;2024-01-30T06:17:40;-0.27;118.99
61641;HTU21D;62201;49.966;8.342;2024-01-30T06:20:06;-0.27;118.99
61641;HTU21D;62201;49.966;8.342;2024-01-30T06:22:31;-0.39;118.99
61641;HTU21D;62201;49.966;8.342;2024-01-30T06:24:56;-0.40;118.99
61641;HTU21D;62201;49.966;8.342;2024-01-30T06:27:22;-0.49;118.99
61641;HTU21D;62201;49.966;8.342;2024-01-30T06:29:47;-0.22;118.99
61641;HTU21D;62201;49.966;8.342;2024-01-30T06:32:13;-0.13;118.99
61641;HTU21D;62201;49.966;8.342;2024-01-30T06:34:38;-0.12;118.99
61641;HTU21D;62201;49.966;8.342;2024-01-30T06:37:05;-0.29;118.99
61641;HTU21D;62201;49.966;8.342;2024-01-30T06:39:30;-0.11;118.99
61641;HTU21D;62201;49.966;8.342;2024-01-30T06:41:56;-0.13;118.99
61641;HTU21D;62201;49.966;8.342;2024-01-30T06:44:21;-0.32;118.99
61641;HTU21D;62201;49.966;8.342;2024-01-30T06:46:46;-0.32;118.99
61641;HTU21D;62201;49.966;8.342;2024-01-30T06:49:12;-0.19;118.99
61641;HTU21D;62201;49.966;8.342;2024-01-30T06:51:37;-0.28;118.99
61641;HTU21D;62201;49.966;8.342;2024-01-30T06:54:03;-0.30;118.99
61641;HTU21D;62201;49.966;8.342;2024-01-30T06:56:29;-0.19;118.99
61641;HTU21D;62201;49.966;8.342;2024-01-30T06:58:54;0.03;118.99
61641;HTU21D;62201;49.966;8.342;2024-01-30T07:01:19;-0.17;118.99
61641;HTU21D;62201;49.966;8.342;2024-01-30T07:03:45;-0.05;118.99
61641;HTU21D;62201;49.966;8.342;2024-01-30T07:06:10;-0.00;118.99
61641;HTU21D;62201;49.966;8.342;2024-01-30T07:08:36;-0.09;118.99
61641;HTU21D;62201;49.966;8.342;2024-01-30T07:11:05;0.06;118.99
61641;HTU21D;62201;49.966;8.342;2024-01-30T07:13:31;0.17;118.99
61641;HTU21D;62201;49.966;8.342;2024-01-30T07:15:57;0.08;118.99
61641;HTU21D;62201;49.966;8.342;2024-01-30T07:18:22;0.16;118.99
61641;HTU21D;62201;49.966;8.342;2024-01-30T07:20:47;0.13;118.99
61641;HTU21D;62201;49.966;8.342;2024-01-30T07:23:14;0.15;118.99
61641;HTU21D;62201;49.966;8.342;2024-01-30T07:25:42;0.14;118.99
61641;HTU21D;62201;49.966;8.342;2024-01-30T07:28:08;0.12;118.99
61641;HTU21D;62201;49.966;8.342;2024-01-30T07:30:35;0.12;118.99
61641;HTU21D;62201;49.966;8.342;2024-01-30T07:33:00;0.17;118.99
61641;HTU21D;62201;49.966;8.342;2024-01-30T07:35:26;0.24;118.99
61641;HTU21D;62201;49.966;8.342;2024-01-30T07:37:51;0.25;118.99
61641;HTU21D;62201;49.966;8.342;2024-01-30T07:40:17;0.24;118.99
61641;HTU21D;62201;49.966;8.342;2024-01-30T07:42:42;0.14;118.99
61641;HTU21D;62201;49.966;8.342;2024-01-30T07:45:08;0.18;118.99
61641;HTU21D;62201;49.966;8.342;2024-01-30T07:47:34;0.23;118.99
61641;HTU21D;62201;49.966;8.342;2024-01-30T07:49:59;0.21;118.99
61641;HTU21D;62201;49.966;8.342;2024-01-30T07:52:24;0.42;118.99
61641;HTU21D;62201;49.966;8.342;2024-01-30T07:54:50;0.36;118.99
61641;HTU21D;62201;49.966;8.342;2024-01-30T07:57:16;0.58;118.99
61641;HTU21D;62201;49.966;8.342;2024-01-30T07:59:43;0.38;118.99
61641;HTU21D;62201;49.966;8.342;2024-01-30T08:02:12;0.57;118.99
61641;HTU21D;62201;49.966;8.342;2024-01-30T08:04:38;0.57;118.99
61641;HTU21D;62201;49.966;8.342;2024-01-30T08:07:03;0.66;118.99
61641;HTU21D;62201;49.966;8.342;2024-01-30T08:09:28;0.69;118.99
61641;HTU21D;62201;49.966;8.342;2024-01-30T08:11:54;0.60;118.99
61641;HTU21D;62201;49.966;8.342;2024-01-30T08:14:19;0.83;118.99
61641;HTU21D;62201;49.966;8.342;2024-01-30T08:16:45;1.01;118.99
61641;HTU21D;62201;49.966;8.342;2024-01-30T08:19:10;1.37;118.99
61641;HTU21D;62201;49.966;8.342;2024-01-30T08:21:35;1.55;118.99
61641;HTU21D;62201;49.966;8.342;2024-01-30T08:24:05;1.57;118.99
61641;HTU21D;62201;49.966;8.342;2024-01-30T08:26:31;1.26;118.99
61641;HTU21D;62201;49.966;8.342;2024-01-30T08:28:58;1.48;118.99
61641;HTU21D;62201;49.966;8.342;2024-01-30T08:31:24;1.56;118.99
61641;HTU21D;62201;49.966;8.342;2024-01-30T08:33:49;1.54;118.99
61641;HTU21D;62201;49.966;8.342;2024-01-30T08:36:16;1.80;118.99
61641;HTU21D;62201;49.966;8.342;2024-01-30T08:38:41;1.58;118.99
61641;HTU21D;62201;49.966;8.342;2024-01-30T08:41:07;1.66;118.99
61641;HTU21D;62201;49.966;8.342;2024-01-30T08:43:33;1.55;118.99
61641;HTU21D;62201;49.966;8.342;2024-01-30T08:45:59;1.80;118.99
61641;HTU21D;62201;49.966;8.342;2024-01-30T08:48:25;2.02;118.99
61641;HTU21D;62201;49.966;8.342;2024-01-30T08:50:50;1.83;118.99
61641;HTU21D;62201;49.966;8.342;2024-01-30T08:53:16;1.97;118.99
61641;HTU21D;62201;49.966;8.342;2024-01-30T08:55:41;1.87;118.99
61641;HTU21D;62201;49.966;8.342;2024-01-30T08:58:06;1.93;118.99
61641;HTU21D;62201;49.966;8.342;2024-01-30T09:00:32;1.77;118.99
61641;HTU21D;62201;49.966;8.342;2024-01-30T09:02:57;1.93;118.99
61641;HTU21D;62201;49.966;8.342;2024-01-30T09:05:22;1.56;118.99
61641;HTU21D;62201;49.966;8.342;2024-01-30T09:07:48;1.54;118.99
61641;HTU21D;62201;49.966;8.342;2024-01-30T09:10:13;1.53;118.99
61641;HTU21D;62201;49.966;8.342;2024-01-30T09:12:39;1.69;118.99
61641;HTU21D;62201;49.966;8.342;2024-01-30T09:15:04;1.65;118.99
61641;HTU21D;62201;49.966;8.342;2024-01-30T09:17:30;1.66;118.99
61641;HTU21D;62201;49.966;8.342;2024-01-30T09:19:55;1.77;118.99
61641;HTU21D;62201;49.966;8.342;2024-01-30T09:22:21;2.07;118.99
61641;HTU21D;62201;49.966;8.342;2024-01-30T09:24:46;2.21;118.99
61641;HTU21D;62201;49.966;8.342;2024-01-30T09:27:12;2.58;118.99
61641;HTU21D;62201;49.966;8.342;2024-01-30T09:29:37;2.59;118.99
61641;HTU21D;62201;49.966;8.342;2024-01-30T09:32:04;2.28;118.99
61641;HTU21D;62201;49.966;8.342;2024-01-30T09:34:29;2.55;118.99
61641;HTU21D;62201;49.966;8.342;2024-01-30T09:36:55;2.55;118.99
61641;HTU21D;62201;49.966;8.342;2024-01-30T09:39:20;2.53;118.99
61641;HTU21D;62201;49.966;8.342;2024-01-30T09:41:49;3.02;118.99
61641;HTU21D;62201;49.966;8.342;2024-01-30T09:44:16;3.24;118.99
61641;HTU21D;62201;49.966;8.342;2024-01-30T09:46:42;2.85;118.99
61641;HTU21D;62201;49.966;8.342;2024-01-30T09:49:09;2.64;118.99
61641;HTU21D;62201;49.966;8.342;2024-01-30T09:51:35;2.72;118.99
61641;HTU21D;62201;49.966;8.342;2024-01-30T09:54:02;3.15;118.99
61641;HTU21D;62201;49.966;8.342;2024-01-30T09:56:28;2.76;118.99
61641;HTU21D;62201;49.966;8.342;2024-01-30T09:58:54;3.02;118.99
61641;HTU21D;62201;49.966;8.342;2024-01-30T10:01:20;2.95;118.99
61641;HTU21D;62201;49.966;8.342;2024-01-30T10:03:45;3.24;118.99
61641;HTU21D;62201;49.966;8.342;2024-01-30T10:06:11;3.10;118.99
61641;HTU21D;62201;49.966;8.342;2024-01-30T10:08:37;3.30;118.99
61641;HTU21D;62201;49.966;8.342;2024-01-30T10:11:03;3.40;118.99
61641;HTU21D;62201;49.966;8.342;2024-01-30T10:13:28;3.76;118.99
61641;HTU21D;62201;49.966;8.342;2024-01-30T10:15:54;3.89;118.99
61641;HTU21D;62201;49.966;8.342;2024-01-30T10:18:22;4.02;118.99
61641;HTU21D;62201;49.966;8.342;2024-01-30T10:20:47;3.65;118.99
61641;HTU21D;62201;49.966;8.342;2024-01-30T10:23:13;3.85;118.99
61641;HTU21D;62201;49.966;8.342;2024-01-30T10:25:38;3.99;118.99
61641;HTU21D;62201;49.966;8.342;2024-01-30T10:28:04;3.78;118.99
61641;HTU21D;62201;49.966;8.342;2024-01-30T10:30:29;4.02;118.99
61641;HTU21D;62201;49.966;8.342;2024-01-30T10:32:55;3.82;118.99
61641;HTU21D;62201;49.966;8.342;2024-01-30T10:35:20;3.95;118.99
61641;HTU21D;62201;49.966;8.342;2024-01-30T10:37:49;4.67;118.99
61641;HTU21D;62201;49.966;8.342;2024-01-30T10:40:14;4.54;118.99
61641;HTU21D;62201;49.966;8.342;2024-01-30T10:42:43;4.80;118.99
61641;HTU21D;62201;49.966;8.342;2024-01-30T10:45:13;4.53;118.99
61641;HTU21D;62201;49.966;8.342;2024-01-30T10:47:59;5.26;118.99
61641;HTU21D;62201;49.966;8.342;2024-01-30T10:50:25;5.70;118.99
61641;HTU21D;62201;49.966;8.342;2024-01-30T10:52:52;5.55;118.00
61641;HTU21D;62201;49.966;8.342;2024-01-30T10:55:18;5.12;118.99
61641;HTU21D;62201;49.966;8.342;2024-01-30T10:57:43;4.94;118.99
61641;HTU21D;62201;49.966;8.342;2024-01-30T11:00:10;5.11;117.45
61641;HTU21D;62201;49.966;8.342;2024-01-30T11:02:43;5.33;115.45
61641;HTU21D;62201;49.966;8.342;2024-01-30T11:05:09;4.92;117.95
61641;HTU21D;62201;49.966;8.342;2024-01-30T11:07:35;5.33;118.98
61641;HTU21D;62201;49.966;8.342;2024-01-30T11:10:02;5.70;113.71
61641;HTU21D;62201;49.966;8.342;2024-01-30T11:12:30;5.69;113.85
61641;HTU21D;62201;49.966;8.342;2024-01-30T11:15:08;6.98;108.56
61641;HTU21D;62201;49.966;8.342;2024-01-30T11:20:21;6.21;109.44
61641;HTU21D;62201;49.966;8.342;2024-01-30T11:22:48;6.17;108.43
61641;HTU21D;62201;49.966;8.342;2024-01-30T11:25:14;6.01;109.10
61641;HTU21D;62201;49.966;8.342;2024-01-30T11:27:41;5.60;113.00
61641;HTU21D;62201;49.966;8.342;2024-01-30T11:30:08;5.67;112.97
61641;HTU21D;62201;49.966;8.342;2024-01-30T11:32:33;5.77;112.13
61641;HTU21D;62201;49.966;8.342;2024-01-30T11:34:59;6.04;111.06
61641;HTU21D;62201;49.966;8.342;2024-01-30T11:37:25;5.89;111.91
61641;HTU21D;62201;49.966;8.342;2024-01-30T11:39:53;5.85;112.88
61641;HTU21D;62201;49.966;8.342;2024-01-30T11:42:19;6.04;111.56
61641;HTU21D;62201;49.966;8.342;2024-01-30T11:44:48;5.61;116.09
61641;HTU21D;62201;49.966;8.342;2024-01-30T11:47:14;5.76;114.20
61641;HTU21D;62201;49.966;8.342;2024-01-30T11:49:40;5.53;115.23
61641;HTU21D;62201;49.966;8.342;2024-01-30T11:52:05;5.74;114.59
61641;HTU21D;62201;49.966;8.342;2024-01-30T11:54:31;6.02;112.76
61641;HTU21D;62201;49.966;8.342;2024-01-30T11:56:56;6.09;114.61
61641;HTU21D;62201;49.966;8.342;2024-01-30T11:59:22;7.04;107.82
61641;HTU21D;62201;49.966;8.342;2024-01-30T12:01:47;6.90;105.85
61641;HTU21D;62201;49.966;8.342;2024-01-30T12:04:13;6.97;107.59
61641;HTU21D;62201;49.966;8.342;2024-01-30T12:06:39;6.54;108.44
61641;HTU21D;62201;49.966;8.342;2024-01-30T12:09:05;6.93;106.82
61641;HTU21D;62201;49.966;8.342;2024-01-30T12:11:33;7.17;104.91
61641;HTU21D;62201;49.966;8.342;2024-01-30T12:14:08;6.81;106.91
61641;HTU21D;62201;49.966;8.342;2024-01-30T12:16:34;7.13;106.24
61641;HTU21D;62201;49.966;8.342;2024-01-30T12:19:00;7.60;103.27
61641;HTU21D;62201;49.966;8.342;2024-01-30T12:21:29;7.60;104.05
61641;HTU21D;62201;49.966;8.342;2024-01-30T12:23:56;7.11;105.72
61641;HTU21D;62201;49.966;8.342;2024-01-30T12:26:22;7.92;101.56
61641;HTU21D;62201;49.966;8.342;2024-01-30T12:28:48;7.05;105.94
61641;HTU21D;62201;49.966;8.342;2024-01-30T12:31:15;7.19;103.60
61641;HTU21D;62201;49.966;8.342;2024-01-30T12:33:41;7.23;103.84
61641;HTU21D;62201;49.966;8.342;2024-01-30T12:36:06;7.62;101.62
61641;HTU21D;62201;49.966;8.342;2024-01-30T12:38:35;8.06;99.02
61641;HTU21D;62201;49.966;8.342;2024-01-30T12:41:00;8.05;100.77
61641;HTU21D;62201;49.966;8.342;2024-01-30T12:43:26;9.15;94.85
61641;HTU21D;62201;49.966;8.342;2024-01-30T12:45:54;9.14;93.49
61641;HTU21D;62201;49.966;8.342;2024-01-30T12:48:20;8.71;95.13
61641;HTU21D;62201;49.966;8.342;2024-01-30T12:50:46;7.98;100.32
61641;HTU21D;62201;49.966;8.342;2024-01-30T12:53:11;7.61;102.18
61641;HTU21D;62201;49.966;8.342;2024-01-30T12:55:38;7.78;101.10
61641;HTU21D;62201;49.966;8.342;2024-01-30T12:58:03;8.26;98.09
61641;HTU21D;62201;49.966;8.342;2024-01-30T13:00:29;8.33;99.13
61641;HTU21D;62201;49.966;8.342;2024-01-30T13:02:54;8.58;97.07
61641;HTU21D;62201;49.966;8.342;2024-01-30T13:05:20;8.29;98.17
61641;HTU21D;62201;49.966;8.342;2024-01-30T13:07:45;7.89;100.70
61641;HTU21D;62201;49.966;8.342;2024-01-30T13:10:11;7.68;102.42
61641;HTU21D;62201;49.966;8.342;2024-01-30T13:12:36;7.17;106.00
61641;HTU21D;62201;49.966;8.342;2024-01-30T13:15:04;7.58;103.77
61641;HTU21D;62201;49.966;8.342;2024-01-30T13:17:30;7.25;105.98
61641;HTU21D;62201;49.966;8.342;2024-01-30T13:19:55;7.58;104.49
61641;HTU21D;62201;49.966;8.342;2024-01-30T13:22:21;7.75;103.86
61641;HTU21D;62201;49.966;8.342;2024-01-30T13:24:49;7.50;105.59
61641;HTU21D;62201;49.966;8.342;2024-01-30T13:27:15;7.61;105.00
61641;HTU21D;62201;49.966;8.342;2024-01-30T13:29:41;7.98;103.75
61641;HTU21D;62201;49.966;8.342;2024-01-30T13:32:07;7.34;107.25
61641;HTU21D;62201;49.966;8.342;2024-01-30T13:34:32;7.13;108.62
61641;HTU21D;62201;49.966;8.342;2024-01-30T13:36:58;7.70;105.46
61641;HTU21D;62201;49.966;8.342;2024-01-30T13:39:23;7.73;105.30
61641;HTU21D;62201;49.966;8.342;2024-01-30T13:41:49;7.71;105.85
61641;HTU21D;62201;49.966;8.342;2024-01-30T13:44:15;7.70;105.95
61641;HTU21D;62201;49.966;8.342;2024-01-30T13:46:41;7.62;107.12
61641;HTU21D;62201;49.966;8.342;2024-01-30T13:49:07;7.72;106.35
61641;HTU21D;62201;49.966;8.342;2024-01-30T13:51:32;7.65;106.78
61641;HTU21D;62201;49.966;8.342;2024-01-30T13:53:58;7.69;106.94
61641;HTU21D;62201;49.966;8.342;2024-01-30T13:56:23;8.04;104.82
61641;HTU21D;62201;49.966;8.342;2024-01-30T13:58:49;7.88;105.76
61641;HTU21D;62201;49.966;8.342;2024-01-30T14:01:15;8.09;104.16
61641;HTU21D;62201;49.966;8.342;2024-01-30T14:03:41;8.05;104.37
61641;HTU21D;62201;49.966;8.342;2024-01-30T14:06:06;7.71;106.76
61641;HTU21D;62201;49.966;8.342;2024-01-30T14:08:32;7.65;107.15
61641;HTU21D;62201;49.966;8.342;2024-01-30T14:10:57;7.68;107.24
61641;HTU21D;62201;49.966;8.342;2024-01-30T14:13:23;7.72;107.24
61641;HTU21D;62201;49.966;8.342;2024-01-30T14:15:50;7.68;107.70
61641;HTU21D;62201;49.966;8.342;2024-01-30T14:18:16;7.91;106.67
61641;HTU21D;62201;49.966;8.342;2024-01-30T14:20:41;7.78;107.14
61641;HTU21D;62201;49.966;8.342;2024-01-30T14:23:07;7.64;107.76
61641;HTU21D;62201;49.966;8.342;2024-01-30T14:25:32;7.70;106.69
61641;HTU21D;62201;49.966;8.342;2024-01-30T14:27:58;7.58;108.05
61641;HTU21D;62201;49.966;8.342;2024-01-30T14:30:23;7.65;108.04
61641;HTU21D;62201;49.966;8.342;2024-01-30T14:32:49;7.71;107.51
61641;HTU21D;62201;49.966;8.342;2024-01-30T14:35:15;7.83;106.71
61641;HTU21D;62201;49.966;8.342;2024-01-30T14:37:40;7.71;107.01
61641;HTU21D;62201;49.966;8.342;2024-01-30T14:40:06;7.67;107.13
61641;HTU21D;62201;49.966;8.342;2024-01-30T14:42:32;7.71;106.71
61641;HTU21D;62201;49.966;8.342;2024-01-30T14:44:58;7.64;106.95
61641;HTU21D;62201;49.966;8.342;2024-01-30T14:47:24;7.65;107.18
61641;HTU21D;62201;49.966;8.342;2024-01-30T14:49:49;7.68;107.01
61641;HTU21D;62201;49.966;8.342;2024-01-30T14:52:15;7.68;107.00
61641;HTU21D;62201;49.966;8.342;2024-01-30T14:54:40;7.68;106.50
61641;HTU21D;62201;49.966;8.342;2024-01-30T14:57:05;7.75;106.68
61641;HTU21D;62201;49.966;8.342;2024-01-30T14:59:31;7.68;107.40
61641;HTU21D;62201;49.966;8.342;2024-01-30T15:01:56;7.58;108.15
61641;HTU21D;62201;49.966;8.342;2024-01-30T15:04:22;7.61;108.21
61641;HTU21D;62201;49.966;8.342;2024-01-30T15:06:47;7.58;108.78
61641;HTU21D;62201;49.966;8.342;2024-01-30T15:09:14;7.53;109.20